Time;durP1;ratioP1;P1;durP2;ratioP2;P2;SDS_P1;SDS_P2;PMS_P1;PMS_P2;Temp;Humidity;BMP_temperature;BMP_pressure;BME280_temperature;BME280_humidity;BME280_pressure;Samples;Min_cycle;Max_cycle;Signal;HPM_P1;HPM_P2
2021/07/23 00:01:31;;;;;;;17.23;14.80;;;19.50;1.00;;;;;;5129737;27;20470;-55
2021/07/23 00:03:57;;;;;;;16.67;14.63;;;19.50;1.00;;;;;;5129515;27;20490;-53
2021/07/23 00:06:22;;;;;;;21.80;14.90;;;19.40;1.00;;;;;;5124420;27;20956;-56
2021/07/23 00:08:48;;;;;;;17.83;14.03;;;19.40;1.00;;;;;;5128398;27;20264;-53
2021/07/23 00:11:13;;;;;;;18.63;15.60;;;19.40;1.00;;;;;;5126566;27;20312;-54
2021/07/23 00:13:39;;;;;;;17.27;13.60;;;19.40;1.00;;;;;;5106975;27;20181;-53
2021/07/23 00:16:04;;;;;;;17.30;13.97;;;19.30;1.00;;;;;;5129513;27;20638;-55
2021/07/23 00:18:30;;;;;;;20.23;15.43;;;19.30;1.00;;;;;;5130166;27;20205;-54
2021/07/23 00:20:55;;;;;;;19.00;14.43;;;19.30;1.00;;;;;;5130291;27;20224;-54
2021/07/23 00:23:21;;;;;;;19.30;15.53;;;19.30;1.00;;;;;;5131181;27;20173;-55
2021/07/23 00:25:46;;;;;;;16.33;13.70;;;19.40;1.00;;;;;;5129194;27;20181;-54
2021/07/23 00:28:12;;;;;;;19.97;14.90;;;19.50;1.00;;;;;;5133021;27;20260;-54
2021/07/23 00:30:38;;;;;;;19.73;14.83;;;19.50;1.00;;;;;;5128860;27;20305;-54
2021/07/23 00:33:04;;;;;;;14.70;12.60;;;19.50;1.00;;;;;;5124424;27;20487;-55
2021/07/23 00:35:29;;;;;;;18.73;13.40;;;19.50;1.00;;;;;;5130187;27;20182;-55
2021/07/23 00:37:56;;;;;;;18.10;13.90;;;19.60;1.00;;;;;;5127338;27;20600;-53
2021/07/23 00:40:23;;;;;;;17.80;14.20;;;19.60;1.00;;;;;;5131835;27;20661;-54
2021/07/23 00:42:48;;;;;;;19.27;14.90;;;19.60;1.00;;;;;;5129797;27;20456;-55
2021/07/23 00:45:14;;;;;;;16.37;14.40;;;19.60;1.00;;;;;;5129756;27;20439;-54
2021/07/23 00:47:43;;;;;;;17.43;14.00;;;19.70;1.00;;;;;;5131195;27;20181;-54
2021/07/23 00:50:09;;;;;;;16.90;14.07;;;19.60;1.00;;;;;;5129502;27;20188;-55
2021/07/23 00:52:36;;;;;;;21.50;14.93;;;19.70;1.00;;;;;;5131809;27;20463;-53
2021/07/23 00:55:02;;;;;;;17.07;13.73;;;19.80;1.00;;;;;;5131209;27;20439;-56
2021/07/23 00:57:29;;;;;;;16.23;14.50;;;19.80;1.00;;;;;;5130265;27;20439;-53
2021/07/23 00:59:55;;;;;;;19.23;14.00;;;19.70;1.00;;;;;;5109106;27;20443;-54
2021/07/23 01:02:20;;;;;;;16.37;13.80;;;19.70;1.00;;;;;;5129697;27;20446;-54
2021/07/23 01:04:46;;;;;;;14.23;12.70;;;19.70;1.00;;;;;;5130437;27;20412;-55
2021/07/23 01:07:13;;;;;;;17.90;14.37;;;19.70;1.00;;;;;;5126986;27;20199;-56
2021/07/23 01:09:38;;;;;;;18.23;13.37;;;19.60;1.00;;;;;;5129773;27;20266;-53
2021/07/23 01:12:05;;;;;;;15.90;14.10;;;19.70;1.00;;;;;;5130821;27;20939;-55
2021/07/23 01:14:32;;;;;;;17.53;14.23;;;19.70;1.00;;;;;;5131471;27;20242;-53
2021/07/23 01:16:58;;;;;;;19.87;14.47;;;19.70;1.00;;;;;;5130947;27;20915;-55
2021/07/23 01:19:26;;;;;;;15.77;13.27;;;19.80;1.00;;;;;;5129253;27;20523;-54
2021/07/23 01:21:55;;;;;;;17.43;14.70;;;19.70;1.00;;;;;;5124794;27;20625;-53
2021/07/23 01:24:21;;;;;;;17.10;13.43;;;19.80;1.00;;;;;;5127604;27;21011;-53
2021/07/23 01:26:50;;;;;;;15.97;14.30;;;19.80;1.00;;;;;;5126884;27;20439;-53
2021/07/23 01:29:15;;;;;;;15.47;13.20;;;19.80;1.00;;;;;;5126895;27;20181;-55
2021/07/23 01:31:41;;;;;;;17.23;14.00;;;19.70;1.00;;;;;;5126504;27;20447;-54
2021/07/23 01:34:06;;;;;;;15.20;13.63;;;19.60;1.00;;;;;;5128181;27;20189;-54
2021/07/23 01:36:32;;;;;;;16.37;13.67;;;19.70;1.00;;;;;;5127600;27;20186;-55
2021/07/23 01:38:59;;;;;;;16.73;13.70;;;19.60;1.00;;;;;;5126179;27;20205;-54
2021/07/23 01:41:24;;;;;;;15.67;13.20;;;19.60;1.00;;;;;;5131456;27;20226;-56
2021/07/23 01:43:50;;;;;;;15.77;13.63;;;19.60;1.00;;;;;;5127116;27;21902;-55
2021/07/23 01:46:15;;;;;;;18.73;15.03;;;19.70;1.00;;;;;;5128142;27;20542;-53
2021/07/23 01:48:41;;;;;;;17.67;14.00;;;19.70;1.00;;;;;;5127464;27;20189;-53
2021/07/23 01:51:08;;;;;;;15.90;14.07;;;19.60;1.00;;;;;;5124980;27;20217;-55
2021/07/23 01:53:34;;;;;;;19.27;14.00;;;19.70;1.00;;;;;;5128718;27;20322;-55
2021/07/23 01:55:59;;;;;;;16.90;14.17;;;19.70;1.00;;;;;;5130057;27;20541;-54
2021/07/23 01:58:25;;;;;;;16.43;13.97;;;19.70;1.00;;;;;;5109432;27;20329;-53
2021/07/23 02:00:51;;;;;;;17.10;14.53;;;19.70;1.00;;;;;;5130892;27;20182;-54
2021/07/23 02:03:16;;;;;;;13.93;12.50;;;19.70;1.00;;;;;;5129261;27;20201;-53
2021/07/23 02:05:42;;;;;;;17.83;14.23;;;19.60;1.00;;;;;;5112285;27;20194;-54
2021/07/23 02:08:07;;;;;;;16.83;13.47;;;19.70;1.00;;;;;;5124645;27;20192;-54
2021/07/23 02:10:33;;;;;;;18.43;15.00;;;19.70;1.00;;;;;;5129651;27;20598;-54
2021/07/23 02:13:00;;;;;;;18.17;14.30;;;19.70;1.00;;;;;;5127661;27;20184;-55
2021/07/23 02:15:25;;;;;;;16.63;12.97;;;19.60;1.00;;;;;;5130623;27;20306;-53
2021/07/23 02:17:51;;;;;;;17.93;14.30;;;19.60;1.00;;;;;;5130911;27;20545;-54
2021/07/23 02:20:17;;;;;;;17.37;15.20;;;19.60;1.00;;;;;;5125821;27;20178;-55
2021/07/23 02:22:42;;;;;;;17.60;13.93;;;19.60;1.00;;;;;;5131224;27;20181;-53
2021/07/23 02:25:08;;;;;;;19.87;14.80;;;19.60;1.00;;;;;;5125368;27;20440;-54
2021/07/23 02:27:34;;;;;;;22.60;13.77;;;19.60;1.00;;;;;;5128588;27;20226;-53
2021/07/23 02:30:01;;;;;;;17.93;14.13;;;19.50;1.00;;;;;;5129594;27;20590;-55
2021/07/23 02:32:27;;;;;;;16.23;13.00;;;19.60;1.00;;;;;;5129688;27;20447;-55
2021/07/23 02:34:52;;;;;;;17.30;13.30;;;19.60;1.00;;;;;;5126437;27;21030;-52
2021/07/23 02:37:18;;;;;;;16.20;13.43;;;19.50;1.00;;;;;;5131060;27;20563;-55
2021/07/23 02:39:43;;;;;;;17.03;13.77;;;19.50;1.00;;;;;;5126243;27;20227;-56
2021/07/23 02:42:09;;;;;;;17.20;14.70;;;19.50;1.00;;;;;;5128975;27;20179;-53
2021/07/23 02:44:34;;;;;;;16.93;14.00;;;19.60;1.00;;;;;;5127317;27;20622;-53
2021/07/23 02:47:00;;;;;;;17.03;15.13;;;19.50;1.00;;;;;;5127400;27;20192;-54
2021/07/23 02:49:25;;;;;;;18.90;15.10;;;19.50;1.00;;;;;;5126010;27;20212;-54
2021/07/23 02:51:51;;;;;;;17.40;13.20;;;19.40;1.00;;;;;;5128670;27;20248;-54
2021/07/23 02:54:16;;;;;;;19.77;15.50;;;19.40;1.00;;;;;;5128255;27;20196;-55
2021/07/23 02:56:42;;;;;;;21.43;15.00;;;19.40;1.00;;;;;;5132253;27;20243;-53
2021/07/23 02:59:07;;;;;;;17.27;14.17;;;19.40;1.00;;;;;;5130082;27;20221;-55
2021/07/23 03:01:33;;;;;;;15.93;12.77;;;19.40;1.00;;;;;;5125857;27;20237;-52
2021/07/23 03:03:59;;;;;;;15.80;13.30;;;19.40;1.00;;;;;;5127740;27;20656;-54
2021/07/23 03:06:24;;;;;;;17.30;14.10;;;19.40;1.00;;;;;;5108741;27;20198;-56
2021/07/23 03:08:50;;;;;;;15.60;12.80;;;19.40;1.00;;;;;;5128647;27;20231;-54
2021/07/23 03:11:15;;;;;;;15.10;13.50;;;19.40;1.00;;;;;;5129736;27;20180;-54
2021/07/23 03:13:41;;;;;;;18.37;14.70;;;19.40;1.00;;;;;;5129078;27;20191;-54
2021/07/23 03:16:14;;;;;;;18.70;14.30;;;19.30;1.00;;;;;;5131294;27;20180;-53
2021/07/23 03:18:40;;;;;;;15.67;13.50;;;19.30;1.00;;;;;;5111834;27;20420;-52
2021/07/23 03:21:05;;;;;;;16.30;13.33;;;19.20;1.00;;;;;;5133815;27;20462;-55
2021/07/23 03:23:31;;;;;;;17.10;14.77;;;19.30;1.00;;;;;;5133819;27;20932;-55
2021/07/23 03:25:56;;;;;;;17.40;13.63;;;19.30;1.00;;;;;;5136823;27;20260;-57
2021/07/23 03:28:22;;;;;;;15.80;14.10;;;19.20;1.00;;;;;;5131905;27;20192;-55
2021/07/23 03:30:47;;;;;;;17.00;13.13;;;19.20;1.00;;;;;;5128143;27;20190;-55
2021/07/23 03:33:13;;;;;;;22.53;13.63;;;19.20;1.00;;;;;;5130718;27;20189;-54
2021/07/23 03:35:38;;;;;;;16.60;13.57;;;19.20;1.00;;;;;;5131776;27;20204;-53
2021/07/23 03:38:04;;;;;;;16.50;13.03;;;19.20;1.00;;;;;;5131182;27;20562;-55
2021/07/23 03:40:29;;;;;;;15.33;13.60;;;19.20;1.00;;;;;;5108358;27;20268;-55
2021/07/23 03:42:55;;;;;;;15.73;13.47;;;19.20;1.00;;;;;;5132815;27;20192;-55
2021/07/23 03:45:21;;;;;;;16.17;13.33;;;19.20;1.00;;;;;;5132055;27;20186;-55
2021/07/23 03:47:46;;;;;;;15.60;12.83;;;19.30;1.00;;;;;;5140590;27;20185;-53
2021/07/23 03:50:12;;;;;;;17.50;14.17;;;19.20;1.00;;;;;;5134140;27;20312;-52
2021/07/23 03:52:37;;;;;;;16.23;14.27;;;19.20;1.00;;;;;;5137288;27;20217;-55
2021/07/23 03:55:03;;;;;;;15.13;12.30;;;19.30;1.00;;;;;;5131375;27;20684;-54
2021/07/23 03:57:29;;;;;;;17.90;13.67;;;19.40;1.00;;;;;;5131013;27;20190;-54
2021/07/23 03:59:54;;;;;;;17.83;13.53;;;19.50;1.00;;;;;;5129892;27;20457;-55
2021/07/23 04:02:20;;;;;;;18.50;13.70;;;19.40;1.00;;;;;;5133625;27;20193;-56
2021/07/23 04:04:45;;;;;;;16.33;13.83;;;19.50;1.00;;;;;;5130777;27;20670;-53
2021/07/23 04:07:11;;;;;;;18.00;14.60;;;19.40;1.00;;;;;;5130295;27;20193;-53
2021/07/23 04:09:36;;;;;;;16.60;13.83;;;19.60;1.00;;;;;;5114368;27;20188;-52
2021/07/23 04:12:02;;;;;;;15.60;13.37;;;19.60;1.00;;;;;;5113063;27;20181;-55
2021/07/23 04:14:28;;;;;;;15.37;13.77;;;19.60;1.00;;;;;;5133422;27;20287;-55
2021/07/23 04:16:53;;;;;;;15.90;13.60;;;19.60;1.00;;;;;;5132013;27;20200;-54
2021/07/23 04:19:19;;;;;;;15.93;14.13;;;19.60;1.00;;;;;;5132982;27;20209;-53
2021/07/23 04:21:45;;;;;;;15.57;13.90;;;19.60;1.00;;;;;;5132858;27;20182;-53
2021/07/23 04:24:11;;;;;;;16.67;13.30;;;19.70;1.00;;;;;;5131865;27;20446;-54
2021/07/23 04:26:36;;;;;;;16.47;14.03;;;19.80;1.00;;;;;;5130279;27;20538;-55
2021/07/23 04:29:02;;;;;;;15.17;13.57;;;19.90;1.00;;;;;;5129291;27;20446;-54
2021/07/23 04:31:28;;;;;;;16.50;14.40;;;19.80;1.00;;;;;;5153242;27;20196;-55
2021/07/23 04:33:58;;;;;;;18.93;14.73;;;19.90;1.00;;;;;;5145601;27;20439;-55
2021/07/23 04:36:24;;;;;;;17.80;14.20;;;20.00;1.00;;;;;;5132528;27;20189;-54
2021/07/23 04:38:49;;;;;;;19.87;14.53;;;20.00;1.00;;;;;;5127968;27;20570;-55
2021/07/23 04:41:15;;;;;;;17.93;15.43;;;20.10;1.00;;;;;;5130451;27;20188;-56
2021/07/23 04:43:40;;;;;;;16.60;13.83;;;20.10;1.00;;;;;;5128744;27;20268;-54
2021/07/23 04:46:07;;;;;;;19.57;15.47;;;20.20;1.00;;;;;;5111363;27;20181;-55
2021/07/23 04:48:33;;;;;;;19.10;15.40;;;20.20;1.00;;;;;;5128313;27;20238;-57
2021/07/23 04:51:03;;;;;;;15.90;14.10;;;20.20;1.00;;;;;;5133755;27;20451;-55
2021/07/23 04:53:28;;;;;;;15.90;13.17;;;20.30;1.00;;;;;;5112004;27;20932;-55
2021/07/23 04:55:58;;;;;;;16.40;14.13;;;20.30;1.00;;;;;;5131123;27;20440;-53
2021/07/23 04:58:23;;;;;;;17.20;14.23;;;20.20;1.00;;;;;;5127409;27;20552;-54
2021/07/23 05:00:50;;;;;;;16.10;13.00;;;20.40;1.00;;;;;;5132487;27;20515;-54
2021/07/23 05:03:16;;;;;;;17.60;14.30;;;20.40;1.00;;;;;;5130274;27;20645;-54
2021/07/23 05:05:42;;;;;;;15.70;14.00;;;20.50;1.00;;;;;;5132237;27;20438;-55
2021/07/23 05:08:09;;;;;;;18.27;14.23;;;20.60;1.00;;;;;;5127351;27;20196;-55
2021/07/23 05:10:35;;;;;;;16.43;13.80;;;20.70;1.00;;;;;;5130137;27;20474;-53
2021/07/23 05:13:03;;;;;;;18.27;13.83;;;20.80;1.00;;;;;;5129569;27;20534;-54
2021/07/23 05:15:28;;;;;;;19.47;13.10;;;20.90;1.00;;;;;;5129952;27;20451;-56
2021/07/23 05:17:54;;;;;;;16.23;13.70;;;20.90;1.00;;;;;;5127775;27;20454;-56
2021/07/23 05:20:19;;;;;;;16.03;13.63;;;20.90;1.00;;;;;;5130353;27;20185;-54
2021/07/23 05:22:45;;;;;;;17.00;12.90;;;21.00;1.00;;;;;;5129216;27;20197;-56
2021/07/23 05:25:11;;;;;;;18.43;13.87;;;22.10;1.00;;;;;;5129743;27;20178;-55
2021/07/23 05:27:37;;;;;;;15.47;12.60;;;21.20;1.00;;;;;;5132432;27;20184;-56
2021/07/23 05:30:04;;;;;;;16.00;13.33;;;21.30;1.00;;;;;;5127433;27;20435;-54
2021/07/23 05:32:29;;;;;;;16.53;13.53;;;21.40;1.00;;;;;;5105783;27;20790;-56
2021/07/23 05:34:55;;;;;;;19.73;15.23;;;21.60;1.00;;;;;;5131534;27;20423;-56
2021/07/23 05:37:21;;;;;;;15.80;14.03;;;21.60;1.00;;;;;;5129505;27;20226;-53
2021/07/23 05:39:47;;;;;;;16.40;12.73;;;21.80;1.00;;;;;;5125612;27;20468;-53
2021/07/23 05:42:13;;;;;;;17.73;15.47;;;21.80;1.00;;;;;;5109979;27;20199;-56
2021/07/23 05:44:38;;;;;;;18.20;13.87;;;21.80;1.00;;;;;;5130050;27;20430;-55
2021/07/23 05:47:04;;;;;;;16.50;14.40;;;21.90;1.00;;;;;;5127233;27;20200;-55
2021/07/23 05:49:29;;;;;;;18.83;14.33;;;21.80;1.00;;;;;;5125760;27;20217;-56
2021/07/23 05:51:55;;;;;;;20.53;14.73;;;21.80;1.00;;;;;;5130942;27;20305;-55
2021/07/23 05:54:21;;;;;;;15.03;12.80;;;21.80;1.00;;;;;;5129115;27;20564;-53
2021/07/23 05:56:46;;;;;;;13.73;12.33;;;21.80;1.00;;;;;;5128648;27;20181;-57
2021/07/23 05:59:12;;;;;;;16.67;13.80;;;22.00;1.00;;;;;;5128490;27;20559;-53
2021/07/23 06:01:38;;;;;;;15.17;13.57;;;22.10;1.00;;;;;;5130029;27;20182;-53
2021/07/23 06:04:04;;;;;;;16.00;14.00;;;22.20;1.00;;;;;;5130660;27;20437;-53
2021/07/23 06:06:30;;;;;;;15.73;12.77;;;22.40;1.00;;;;;;5126545;27;20585;-56
2021/07/23 06:08:56;;;;;;;15.30;13.37;;;22.30;1.00;;;;;;5129920;27;20265;-56
2021/07/23 06:11:22;;;;;;;15.63;13.97;;;22.30;1.00;;;;;;5130995;27;20439;-54
2021/07/23 06:13:47;;;;;;;17.83;14.90;;;22.30;1.00;;;;;;5128410;27;20992;-54
2021/07/23 06:16:13;;;;;;;17.63;13.70;;;22.40;1.00;;;;;;5127110;27;20197;-54
2021/07/23 06:18:39;;;;;;;17.63;13.83;;;22.40;1.00;;;;;;5128618;27;20656;-55
2021/07/23 06:21:08;;;;;;;16.80;13.40;;;22.60;1.00;;;;;;5127321;27;20531;-54
2021/07/23 06:23:34;;;;;;;18.20;12.67;;;22.50;1.00;;;;;;5130384;27;20170;-54
2021/07/23 06:26:03;;;;;;;15.70;13.30;;;22.60;1.00;;;;;;5126946;27;20970;-53
2021/07/23 06:28:29;;;;;;;16.40;14.30;;;22.50;1.00;;;;;;5126977;27;20650;-53
2021/07/23 06:31:03;;;;;;;16.43;13.93;;;22.60;1.00;;;;;;5125220;27;20434;-56
2021/07/23 06:33:28;;;;;;;14.93;13.33;;;22.70;1.00;;;;;;5124562;27;20181;-54
2021/07/23 06:35:54;;;;;;;16.27;13.47;;;22.80;1.00;;;;;;5128974;27;20888;-55
2021/07/23 06:38:20;;;;;;;17.77;14.20;;;22.70;1.00;;;;;;5129788;27;20258;-57
2021/07/23 06:40:46;;;;;;;14.83;13.33;;;22.60;1.00;;;;;;5128992;27;20439;-53
2021/07/23 06:43:12;;;;;;;13.53;12.17;;;22.70;1.00;;;;;;5127335;27;20177;-55
2021/07/23 06:45:38;;;;;;;16.90;13.47;;;22.80;1.00;;;;;;5130073;27;20182;-52
2021/07/23 06:48:04;;;;;;;15.10;12.10;;;22.70;1.00;;;;;;5129840;27;20498;-58
2021/07/23 06:50:31;;;;;;;18.77;13.23;;;22.70;1.00;;;;;;5130399;27;20192;-53
2021/07/23 06:52:57;;;;;;;13.80;12.40;;;22.70;1.00;;;;;;5133440;27;20205;-53
2021/07/23 06:55:23;;;;;;;14.87;13.10;;;22.80;1.00;;;;;;5132515;27;20451;-55
2021/07/23 06:57:48;;;;;;;14.80;12.90;;;23.00;1.00;;;;;;5134573;27;20501;-56
2021/07/23 07:00:14;;;;;;;12.87;11.17;;;23.00;1.00;;;;;;5133781;27;20267;-54
2021/07/23 07:02:40;;;;;;;12.87;11.50;;;23.00;1.00;;;;;;5132168;27;20185;-56
2021/07/23 07:05:06;;;;;;;14.60;12.03;;;25.00;1.00;;;;;;5133405;27;20269;-54
2021/07/23 07:07:31;;;;;;;13.33;11.20;;;23.30;1.00;;;;;;5134217;27;20169;-57
2021/07/23 07:09:57;;;;;;;14.87;11.83;;;23.40;1.00;;;;;;5134181;27;20499;-53
2021/07/23 07:12:22;;;;;;;13.40;12.10;;;23.60;1.00;;;;;;5134241;27;20270;-53
2021/07/23 07:14:48;;;;;;;14.13;12.70;;;23.60;1.00;;;;;;5130872;27;20712;-53
2021/07/23 07:17:13;;;;;;;16.17;13.80;;;23.80;1.00;;;;;;5132913;27;20207;-54
2021/07/23 07:19:39;;;;;;;15.63;12.60;;;23.90;1.00;;;;;;5133947;27;20246;-56
2021/07/23 07:22:05;;;;;;;13.23;11.27;;;24.10;1.00;;;;;;5133949;27;20165;-53
2021/07/23 07:24:30;;;;;;;13.30;11.97;;;24.30;1.00;;;;;;5133590;27;20258;-53
2021/07/23 07:26:56;;;;;;;15.40;12.10;;;24.60;1.00;;;;;;5115454;27;20177;-55
2021/07/23 07:29:21;;;;;;;21.50;13.03;;;24.70;1.00;;;;;;5132619;27;20582;-53
2021/07/23 07:31:47;;;;;;;13.80;12.37;;;24.80;1.00;;;;;;5125107;27;20189;-53
2021/07/23 07:34:13;;;;;;;15.17;12.27;;;24.90;1.00;;;;;;5133478;27;20268;-55
2021/07/23 07:36:39;;;;;;;16.60;13.93;;;24.70;1.00;;;;;;5133162;27;20222;-56
2021/07/23 07:39:05;;;;;;;15.20;12.27;;;24.70;1.00;;;;;;5133383;27;20983;-53
2021/07/23 07:41:30;;;;;;;14.00;10.77;;;24.70;1.00;;;;;;5134404;27;20263;-52
2021/07/23 07:43:56;;;;;;;14.70;11.50;;;24.90;1.00;;;;;;5133358;27;20631;-53
2021/07/23 07:46:22;;;;;;;15.90;12.20;;;25.10;1.00;;;;;;5133858;27;20503;-54
2021/07/23 07:48:48;;;;;;;15.43;12.07;;;25.50;1.00;;;;;;5133605;27;20644;-55
2021/07/23 07:51:14;;;;;;;13.03;10.97;;;25.60;1.00;;;;;;5133174;27;20560;-52
2021/07/23 07:53:39;;;;;;;14.30;11.40;;;25.90;1.00;;;;;;5132810;27;20283;-53
2021/07/23 07:56:12;;;;;;;13.47;12.13;;;26.30;1.00;;;;;;5131185;27;20216;-55
2021/07/23 07:58:39;;;;;;;13.30;11.90;;;26.70;1.00;;;;;;5131321;27;20225;-55
2021/07/23 08:01:05;;;;;;;13.77;11.57;;;26.80;1.00;;;;;;5131072;27;20443;-54
2021/07/23 08:03:31;;;;;;;13.17;11.87;;;26.80;1.00;;;;;;5130656;27;20570;-53
2021/07/23 08:06:02;;;;;;;14.03;12.00;;;26.90;1.00;;;;;;5131862;27;20518;-54
2021/07/23 08:08:27;;;;;;;12.30;11.03;;;27.00;1.00;;;;;;5131803;27;20174;-54
2021/07/23 08:10:53;;;;;;;13.03;11.80;;;27.20;1.00;;;;;;5132896;27;20453;-56
2021/07/23 08:13:18;;;;;;;13.90;12.40;;;27.50;1.00;;;;;;5133063;27;20181;-54
2021/07/23 08:15:44;;;;;;;12.40;11.20;;;27.50;1.00;;;;;;5133534;27;20264;-55
2021/07/23 08:18:10;;;;;;;14.00;11.70;;;27.60;1.00;;;;;;5145056;27;20203;-54
2021/07/23 08:20:37;;;;;;;13.77;11.70;;;27.60;1.00;;;;;;5134025;27;22461;-56
2021/07/23 08:23:03;;;;;;;14.57;12.70;;;27.50;1.00;;;;;;5132884;27;20484;-54
2021/07/23 08:25:29;;;;;;;13.40;12.07;;;27.60;1.00;;;;;;5130254;27;20492;-54
2021/07/23 08:27:54;;;;;;;13.50;11.97;;;27.70;1.00;;;;;;5133601;27;20439;-53
2021/07/23 08:30:20;;;;;;;13.60;12.20;;;28.00;1.00;;;;;;5133577;27;20178;-54
2021/07/23 08:32:46;;;;;;;12.13;10.83;;;28.30;1.00;;;;;;5133400;27;20178;-55
2021/07/23 08:35:12;;;;;;;13.13;11.90;;;28.70;1.00;;;;;;5148971;27;20177;-53
2021/07/23 08:37:37;;;;;;;13.10;11.43;;;29.00;1.00;;;;;;5153904;27;20181;-53
2021/07/23 08:40:05;;;;;;;13.47;12.07;;;29.20;1.00;;;;;;5153625;27;20992;-54
2021/07/23 08:42:33;;;;;;;13.73;12.33;;;29.00;1.00;;;;;;5153759;27;20229;-54
2021/07/23 08:45:00;;;;;;;12.57;11.13;;;29.10;1.00;;;;;;5153956;27;20422;-53
2021/07/23 08:47:26;;;;;;;13.60;11.50;;;29.50;1.00;;;;;;5134965;27;20447;-54
2021/07/23 08:49:52;;;;;;;12.40;11.20;;;29.60;1.00;;;;;;5113273;27;20450;-55
2021/07/23 08:52:36;;;;;;;13.00;11.77;;;29.50;1.00;;;;;;5132264;27;20677;-53
2021/07/23 08:55:02;;;;;;;12.33;11.03;;;29.60;1.00;;;;;;5130371;27;20481;-54
2021/07/23 08:57:28;;;;;;;12.90;11.70;;;29.80;1.00;;;;;;5131672;27;20478;-56
2021/07/23 08:59:54;;;;;;;13.10;11.80;;;29.90;1.00;;;;;;5130564;27;20214;-54
2021/07/23 09:02:19;;;;;;;13.90;12.50;;;29.60;1.00;;;;;;5128553;27;20443;-53
2021/07/23 09:04:45;;;;;;;13.40;12.20;;;29.60;1.00;;;;;;5132369;27;20260;-55
2021/07/23 09:07:20;;;;;;;13.77;12.23;;;29.70;1.00;;;;;;5131227;27;20185;-54
2021/07/23 09:09:57;;;;;;;12.67;11.47;;;29.60;1.00;;;;;;5132672;27;20196;-55
2021/07/23 09:12:23;;;;;;;14.03;12.63;;;29.50;1.00;;;;;;5132551;27;20439;-55
2021/07/23 09:14:49;;;;;;;22.80;12.73;;;29.60;1.00;;;;;;5132041;27;20439;-56
2021/07/23 09:17:15;;;;;;;12.10;10.97;;;29.90;1.00;;;;;;5132506;27;20461;-54
2021/07/23 09:19:40;;;;;;;12.17;10.90;;;30.00;1.00;;;;;;5132433;27;20368;-56
2021/07/23 09:22:06;;;;;;;13.73;12.33;;;30.00;1.00;;;;;;5131947;27;20204;-54
2021/07/23 09:24:51;;;;;;;13.33;11.93;;;29.90;1.00;;;;;;5132333;27;20181;-54
2021/07/23 09:27:33;;;;;;;13.43;11.70;;;30.00;1.00;;;;;;5112607;27;20284;-54
2021/07/23 09:30:01;;;;;;;12.60;11.40;;;30.00;1.00;;;;;;5131943;27;20439;-53
2021/07/23 09:32:27;;;;;;;13.97;12.57;;;30.00;1.00;;;;;;5132208;27;20530;-55
2021/07/23 09:35:13;;;;;;;14.70;11.60;;;30.00;1.00;;;;;;5132100;27;20515;-54
2021/07/23 09:37:54;;;;;;;19.47;13.00;;;30.10;1.00;;;;;;5131338;27;20450;-54
2021/07/23 09:40:21;;;;;;;13.40;12.00;;;30.10;1.00;;;;;;5128258;27;20439;-54
2021/07/23 09:42:57;;;;;;;11.10;10.00;;;30.10;1.00;;;;;;5112747;27;20435;-52
2021/07/23 09:45:31;;;;;;;12.10;10.90;;;30.40;1.00;;;;;;5130262;27;20543;-55
2021/07/23 09:48:07;;;;;;;11.37;10.23;;;30.30;1.00;;;;;;5128794;27;20449;-54
2021/07/23 09:50:35;;;;;;;9.87;8.87;;;29.70;1.00;;;;;;5128588;27;20498;-54
2021/07/23 09:53:00;;;;;;;11.33;10.07;;;29.40;1.00;;;;;;5130149;27;20466;-53
2021/07/23 09:55:26;;;;;;;14.10;10.90;;;29.40;1.00;;;;;;5131835;27;20435;-52
2021/07/23 09:57:53;;;;;;;13.27;11.47;;;29.30;1.00;;;;;;5127169;27;20226;-54
2021/07/23 10:00:22;;;;;;;13.37;12.07;;;29.10;1.00;;;;;;5129695;27;20529;-55
2021/07/23 10:02:50;;;;;;;13.47;12.13;;;29.00;1.00;;;;;;5135628;27;20982;-54
2021/07/23 10:05:23;;;;;;;12.90;11.70;;;28.90;1.00;;;;;;5113078;27;20950;-54
2021/07/23 10:07:58;;;;;;;12.30;11.03;;;28.90;1.00;;;;;;5131332;27;20436;-54
2021/07/23 10:10:24;;;;;;;11.47;10.37;;;28.80;1.00;;;;;;5131398;27;20434;-54
2021/07/23 10:12:52;;;;;;;11.97;10.87;;;28.50;1.00;;;;;;5131617;27;20431;-55
2021/07/23 10:15:19;;;;;;;12.40;11.10;;;28.50;1.00;;;;;;5132942;27;20442;-55
2021/07/23 10:17:46;;;;;;;11.30;10.10;;;28.70;1.00;;;;;;5140431;27;20573;-54
2021/07/23 10:20:13;;;;;;;12.93;10.70;;;28.40;1.00;;;;;;5138477;27;20437;-54
2021/07/23 10:22:40;;;;;;;11.90;10.70;;;28.40;1.00;;;;;;5131175;27;20439;-55
2021/07/23 10:25:06;;;;;;;12.73;10.63;;;28.60;1.00;;;;;;5130679;27;20957;-55
2021/07/23 10:27:32;;;;;;;11.33;10.20;;;28.80;1.00;;;;;;5148185;27;20416;-53
2021/07/23 10:29:57;;;;;;;10.93;9.80;;;29.00;1.00;;;;;;5131757;27;20495;-54
2021/07/23 10:32:23;;;;;;;11.73;10.30;;;29.40;1.00;;;;;;5131499;27;20184;-54
2021/07/23 10:34:49;;;;;;;11.33;10.13;;;29.90;1.00;;;;;;5131304;27;20490;-55
2021/07/23 10:37:47;;;;;;;11.10;10.00;;;30.00;1.00;;;;;;5131343;27;20630;-54
2021/07/23 10:40:13;;;;;;;13.33;10.77;;;29.40;1.00;;;;;;5112797;28;20495;-55
2021/07/23 10:42:40;;;;;;;12.70;9.40;;;29.20;1.00;;;;;;5131181;27;20431;-54
2021/07/23 10:45:07;;;;;;;12.80;11.43;;;29.30;1.00;;;;;;5131357;27;20454;-54
2021/07/23 10:47:43;;;;;;;11.47;10.37;;;29.70;1.00;;;;;;5126335;27;20439;-55
2021/07/23 10:50:14;;;;;;;11.40;9.93;;;29.80;1.00;;;;;;5112489;27;20417;-56
2021/07/23 10:52:40;;;;;;;12.03;10.83;;;29.80;1.00;;;;;;5130692;27;20466;-54
2021/07/23 10:55:20;;;;;;;11.27;10.20;;;29.70;1.00;;;;;;5131283;27;20442;-54
2021/07/23 10:58:04;;;;;;;11.13;10.10;;;29.20;1.00;;;;;;5131086;27;20398;-56
2021/07/23 11:00:50;;;;;;;11.47;10.03;;;29.30;1.00;;;;;;5130799;27;20453;-55
2021/07/23 11:03:35;;;;;;;11.93;10.83;;;29.50;1.00;;;;;;5131670;27;20445;-55
2021/07/23 11:06:01;;;;;;;12.37;11.17;;;29.90;1.00;;;;;;5135044;27;20439;-54
2021/07/23 11:08:28;;;;;;;13.27;12.07;;;30.30;1.00;;;;;;5111824;27;20514;-56
2021/07/23 11:10:54;;;;;;;12.13;11.03;;;30.60;1.00;;;;;;5108691;27;20436;-54
2021/07/23 11:13:22;;;;;;;14.53;10.80;;;30.50;1.00;;;;;;5128093;27;20488;-56
2021/07/23 11:15:47;;;;;;;11.27;10.27;;;30.50;1.00;;;;;;5123459;27;20812;-56
2021/07/23 11:18:16;;;;;;;11.93;10.83;;;30.30;1.00;;;;;;5129119;27;20436;-53
2021/07/23 11:20:43;;;;;;;11.20;10.20;;;30.20;1.00;;;;;;5131602;27;20442;-55
2021/07/23 11:23:12;;;;;;;11.30;10.17;;;30.10;1.00;;;;;;5131099;27;20439;-54
2021/07/23 11:25:39;;;;;;;11.67;9.67;;;30.30;1.00;;;;;;5131078;27;20453;-53
2021/07/23 11:28:07;;;;;;;11.30;10.23;;;30.60;1.00;;;;;;5130113;27;20529;-55
2021/07/23 11:30:35;;;;;;;20.80;11.60;;;31.00;1.00;;;;;;5130348;27;20534;-56
2021/07/23 11:33:04;;;;;;;12.47;11.17;;;31.50;1.00;;;;;;5129262;27;20866;-54
2021/07/23 11:35:31;;;;;;;11.17;10.03;;;31.90;1.00;;;;;;5130139;27;20491;-55
2021/07/23 11:37:59;;;;;;;14.73;10.57;;;32.40;1.00;;;;;;5133028;27;20476;-54
2021/07/23 11:40:25;;;;;;;11.77;10.67;;;32.60;1.00;;;;;;5131037;27;20414;-56
2021/07/23 11:42:55;;;;;;;11.87;10.70;;;32.30;1.00;;;;;;5132914;27;20435;-56
2021/07/23 11:45:23;;;;;;;11.07;10.07;;;32.50;1.00;;;;;;5131717;27;20526;-54
2021/07/23 11:47:56;;;;;;;11.47;10.37;;;32.50;1.00;;;;;;5133525;27;20487;-55
2021/07/23 11:50:26;;;;;;;10.80;9.73;;;32.50;1.00;;;;;;5130088;27;20439;-54
2021/07/23 11:53:00;;;;;;;11.70;10.60;;;32.00;1.00;;;;;;5132448;27;20477;-54
2021/07/23 11:55:40;;;;;;;12.07;10.87;;;31.70;1.00;;;;;;5114144;27;20455;-54
2021/07/23 11:58:07;;;;;;;12.73;11.17;;;31.40;1.00;;;;;;5131638;27;20944;-54
2021/07/23 12:00:32;;;;;;;12.90;11.80;;;31.30;1.00;;;;;;5116412;27;20441;-54
2021/07/23 12:03:20;;;;;;;12.70;11.50;;;31.10;1.00;;;;;;5134232;27;20522;-55
2021/07/23 12:05:46;;;;;;;12.27;11.17;;;31.20;1.00;;;;;;5133849;27;20181;-54
2021/07/23 12:08:12;;;;;;;11.17;10.17;;;31.10;1.00;;;;;;5133489;27;20464;-53
2021/07/23 12:10:38;;;;;;;12.47;11.27;;;31.20;1.00;;;;;;5133119;27;20200;-55
2021/07/23 12:13:16;;;;;;;12.23;11.03;;;31.70;1.00;;;;;;5129923;27;20181;-55
2021/07/23 12:15:46;;;;;;;13.10;11.80;;;31.90;1.00;;;;;;5134113;27;20435;-54
2021/07/23 12:18:16;;;;;;;11.40;10.30;;;32.10;1.00;;;;;;5114925;27;20553;-54
2021/07/23 12:20:42;;;;;;;12.83;11.53;;;32.00;1.00;;;;;;5115736;27;20447;-55
2021/07/23 12:23:07;;;;;;;12.27;11.17;;;32.30;1.00;;;;;;5132568;27;20531;-54
2021/07/23 12:25:43;;;;;;;11.27;10.17;;;32.30;1.00;;;;;;5129215;27;20178;-53
2021/07/23 12:28:11;;;;;;;12.63;11.43;;;32.40;1.00;;;;;;5132204;27;20180;-54
2021/07/23 12:30:37;;;;;;;12.63;10.97;;;32.50;1.00;;;;;;5132168;27;20946;-55
2021/07/23 12:33:13;;;;;;;15.57;10.67;;;32.60;1.00;;;;;;5133546;27;20442;-54
2021/07/23 12:35:40;;;;;;;11.50;10.53;;;32.60;1.00;;;;;;5133327;27;20454;-55
2021/07/23 12:38:07;;;;;;;13.57;10.80;;;32.50;1.00;;;;;;5133393;27;20443;-58